createdAt,value
2019-01-13T00:00:34.908Z,6.00
2019-01-13T00:01:39.221Z,6.00
2019-01-13T00:02:42.822Z,5.90
2019-01-13T00:03:46.425Z,5.90
2019-01-13T00:04:49.938Z,5.90
2019-01-13T00:05:53.469Z,5.90
2019-01-13T00:06:57.105Z,6.00
2019-01-13T00:08:00.575Z,6.00
2019-01-13T00:09:06.758Z,6.00
2019-01-13T00:10:10.491Z,6.00
2019-01-13T00:11:14.094Z,6.00
2019-01-13T00:12:17.638Z,6.00
2019-01-13T00:13:21.180Z,6.00
2019-01-13T00:14:24.723Z,6.00
2019-01-13T00:15:28.358Z,6.00
2019-01-13T00:16:31.834Z,6.00
2019-01-13T00:17:35.378Z,6.00
2019-01-13T00:18:38.954Z,6.00
2019-01-13T00:19:42.494Z,6.00
2019-01-13T00:20:45.966Z,6.00
2019-01-13T00:21:49.497Z,6.00
2019-01-13T00:22:52.957Z,6.10
2019-01-13T00:23:56.457Z,6.10
2019-01-13T00:24:59.998Z,6.10
2019-01-13T00:26:03.506Z,6.10
2019-01-13T00:27:07.042Z,6.10
2019-01-13T00:28:10.577Z,6.10
2019-01-13T00:29:14.190Z,6.10
2019-01-13T00:30:19.797Z,6.10
2019-01-13T00:31:23.338Z,6.00
2019-01-13T00:32:26.876Z,6.00
2019-01-13T00:33:30.416Z,6.00
2019-01-13T00:34:33.986Z,6.00
2019-01-13T00:35:37.450Z,6.00
2019-01-13T00:36:40.986Z,6.00
2019-01-13T00:37:44.526Z,6.00
2019-01-13T00:38:48.054Z,6.00
2019-01-13T00:39:51.554Z,6.00
2019-01-13T00:40:55.128Z,6.00
2019-01-13T00:41:59.010Z,6.00
2019-01-13T00:43:02.510Z,6.00
2019-01-13T00:44:06.047Z,6.00
2019-01-13T00:45:11.546Z,6.00
2019-01-13T00:46:15.043Z,6.10
2019-01-13T00:47:18.614Z,6.10
2019-01-13T00:48:22.079Z,6.10
2019-01-13T00:49:25.661Z,6.10
2019-01-13T00:50:29.200Z,6.00
2019-01-13T00:51:32.743Z,6.00
2019-01-13T00:52:36.393Z,6.00
2019-01-13T00:53:39.855Z,6.00
2019-01-13T00:54:43.321Z,6.10
2019-01-13T00:55:46.794Z,6.10
2019-01-13T00:56:50.333Z,6.10
2019-01-13T00:57:53.912Z,6.10
2019-01-13T00:58:57.483Z,6.10
2019-01-13T01:00:01.086Z,6.00
2019-01-13T01:01:05.121Z,6.00
2019-01-13T01:02:08.693Z,6.00
2019-01-13T01:03:12.502Z,6.00
2019-01-13T01:04:15.973Z,6.00
2019-01-13T01:05:19.519Z,6.10
2019-01-13T01:06:23.231Z,6.00
2019-01-13T01:07:26.871Z,6.00
2019-01-13T01:08:30.414Z,6.00
2019-01-13T01:09:33.884Z,6.10
2019-01-13T01:10:37.499Z,6.00
2019-01-13T01:11:41.078Z,6.00
2019-01-13T01:12:44.691Z,6.00
2019-01-13T01:13:48.403Z,6.00
2019-01-13T01:14:51.945Z,6.10
2019-01-13T01:15:55.551Z,6.00
2019-01-13T01:16:59.014Z,6.00
2019-01-13T01:18:02.473Z,6.00
2019-01-13T01:19:05.978Z,6.10
2019-01-13T01:20:12.478Z,6.00
2019-01-13T01:21:16.020Z,6.00
2019-01-13T01:22:19.559Z,6.10
2019-01-13T01:23:23.404Z,6.10
2019-01-13T01:24:26.945Z,6.00
2019-01-13T01:25:30.485Z,6.00
2019-01-13T01:26:34.098Z,6.00
2019-01-13T01:27:37.773Z,6.00
2019-01-13T01:28:41.350Z,6.10
2019-01-13T01:29:44.883Z,6.10
2019-01-13T01:30:48.440Z,6.10
2019-01-13T01:31:51.910Z,6.10
2019-01-13T01:32:55.451Z,6.10
2019-01-13T01:33:59.039Z,6.10
2019-01-13T01:35:02.578Z,6.10
2019-01-13T01:36:06.157Z,6.10
2019-01-13T01:37:09.696Z,6.10
2019-01-13T01:38:13.237Z,6.10
2019-01-13T01:39:16.785Z,6.10
2019-01-13T01:40:20.991Z,6.10
2019-01-13T01:41:24.565Z,6.10
2019-01-13T01:42:28.102Z,6.10
2019-01-13T01:43:31.594Z,6.10
2019-01-13T01:44:35.137Z,6.10
2019-01-13T01:46:37.753Z,6.10
2019-01-13T01:47:41.222Z,6.10
2019-01-13T01:48:44.794Z,6.10
2019-01-13T01:49:48.260Z,6.10
2019-01-13T01:50:52.376Z,6.10
2019-01-13T01:51:55.951Z,6.10
2019-01-13T01:52:59.522Z,6.10
2019-01-13T01:54:02.986Z,6.00
2019-01-13T01:55:09.490Z,6.00
2019-01-13T01:56:13.089Z,6.00
2019-01-13T01:57:16.574Z,6.10
2019-01-13T01:58:20.146Z,6.10
2019-01-13T01:59:23.623Z,6.00
2019-01-13T02:00:27.302Z,6.10
2019-01-13T02:01:30.771Z,6.10
2019-01-13T02:02:34.306Z,6.10
2019-01-13T02:03:37.851Z,6.10
2019-01-13T02:04:41.355Z,6.00
2019-01-13T02:05:44.822Z,6.00
2019-01-13T02:06:48.474Z,6.00
2019-01-13T02:07:52.016Z,6.10
2019-01-13T02:08:55.558Z,6.10
2019-01-13T02:09:59.098Z,6.10
2019-01-13T02:11:02.605Z,6.10
2019-01-13T02:12:06.139Z,6.10
2019-01-13T02:13:09.674Z,6.10
2019-01-13T02:14:13.219Z,6.20
2019-01-13T02:15:22.706Z,6.10
2019-01-13T02:16:26.353Z,6.10
2019-01-13T02:17:29.923Z,6.10
2019-01-13T02:18:33.458Z,6.10
2019-01-13T02:19:36.918Z,6.20
2019-01-13T02:20:40.421Z,6.10
2019-01-13T02:21:43.957Z,6.20
2019-01-13T02:22:47.834Z,6.20
2019-01-13T02:23:51.381Z,6.20
2019-01-13T02:24:54.914Z,6.20
2019-01-13T02:25:58.407Z,6.30
2019-01-13T02:27:01.983Z,6.20
2019-01-13T02:28:05.594Z,6.20
2019-01-13T02:29:09.126Z,6.20
2019-01-13T02:30:18.718Z,6.20
2019-01-13T02:31:22.289Z,6.20
2019-01-13T02:32:25.795Z,6.20
2019-01-13T02:33:29.344Z,6.20
2019-01-13T02:34:32.890Z,6.20
2019-01-13T02:35:36.431Z,6.20
2019-01-13T02:36:39.987Z,6.30
2019-01-13T02:37:43.555Z,6.30
2019-01-13T02:38:47.118Z,6.30
2019-01-13T02:39:50.652Z,6.30
2019-01-13T02:40:54.190Z,6.20
2019-01-13T02:41:57.758Z,6.20
2019-01-13T02:43:01.303Z,6.20
2019-01-13T02:44:05.306Z,6.20
2019-01-13T02:45:12.158Z,6.20
2019-01-13T02:46:15.743Z,6.20
2019-01-13T02:47:19.282Z,6.20
2019-01-13T02:48:22.827Z,6.20
2019-01-13T02:49:26.366Z,6.20
2019-01-13T02:50:29.942Z,6.20
2019-01-13T02:51:33.411Z,6.20
2019-01-13T02:52:39.895Z,6.20
2019-01-13T02:53:43.460Z,6.20
2019-01-13T02:54:46.976Z,6.20
2019-01-13T02:55:50.541Z,6.20
2019-01-13T02:56:54.006Z,6.20
2019-01-13T02:57:57.466Z,6.20
2019-01-13T02:59:01.240Z,6.20
2019-01-13T03:00:10.712Z,6.20
2019-01-13T03:01:14.286Z,6.20
2019-01-13T03:02:17.824Z,6.20
2019-01-13T03:03:21.394Z,6.20
2019-01-13T03:04:24.858Z,6.20
2019-01-13T03:05:28.394Z,6.20
2019-01-13T03:06:31.930Z,6.20
2019-01-13T03:07:35.475Z,6.20
2019-01-13T03:08:39.114Z,6.10
2019-01-13T03:09:42.586Z,6.10
2019-01-13T03:10:46.121Z,6.10
2019-01-13T03:11:49.699Z,6.00
2019-01-13T03:12:53.701Z,6.00
2019-01-13T03:13:57.166Z,6.00
2019-01-13T03:15:00.708Z,6.10
2019-01-13T03:16:04.288Z,6.10
2019-01-13T03:17:07.819Z,6.10
2019-01-13T03:18:11.365Z,6.10
2019-01-13T03:19:14.938Z,6.10
2019-01-13T03:20:18.546Z,6.10
2019-01-13T03:21:22.080Z,6.10
2019-01-13T03:22:25.619Z,6.10
2019-01-13T03:23:29.127Z,6.10
2019-01-13T03:24:32.666Z,6.10
2019-01-13T03:25:36.210Z,6.10
2019-01-13T03:26:39.676Z,6.10
2019-01-13T03:27:43.222Z,6.10
2019-01-13T03:28:46.799Z,6.10
2019-01-13T03:29:50.343Z,6.10
2019-01-13T03:30:53.893Z,6.10
2019-01-13T03:31:57.428Z,6.10
2019-01-13T03:33:00.977Z,6.20
2019-01-13T03:34:04.723Z,6.10
2019-01-13T03:35:08.494Z,6.20
2019-01-13T03:36:12.065Z,6.20
2019-01-13T03:37:15.600Z,6.20
2019-01-13T03:38:19.138Z,6.20
2019-01-13T03:39:22.674Z,6.20
2019-01-13T03:40:26.143Z,6.10
2019-01-13T03:41:29.709Z,6.20
2019-01-13T03:42:33.182Z,6.10
2019-01-13T03:43:36.714Z,6.10
2019-01-13T03:44:40.177Z,6.10
2019-01-13T03:45:43.639Z,6.10
2019-01-13T03:46:47.229Z,6.10
2019-01-13T03:47:50.883Z,6.10
2019-01-13T03:48:54.418Z,6.10
2019-01-13T03:49:57.962Z,6.10
2019-01-13T03:51:01.575Z,6.10
2019-01-13T03:52:05.321Z,6.10
2019-01-13T03:53:08.859Z,6.10
2019-01-13T03:54:12.398Z,6.10
2019-01-13T03:55:17.424Z,6.10
2019-01-13T03:56:20.966Z,6.10
2019-01-13T03:57:24.503Z,6.10
2019-01-13T03:58:28.078Z,6.10
2019-01-13T03:59:31.621Z,6.10
2019-01-13T04:00:35.153Z,6.10
2019-01-13T04:01:38.627Z,6.10
2019-01-13T04:02:42.170Z,6.00
2019-01-13T04:03:45.738Z,6.00
2019-01-13T04:04:49.279Z,6.10
2019-01-13T04:05:52.818Z,6.10
2019-01-13T04:06:56.326Z,6.10
2019-01-13T04:07:59.888Z,6.10
2019-01-13T04:09:05.090Z,6.20
2019-01-13T04:10:11.510Z,6.20
2019-01-13T04:11:15.166Z,6.20
2019-01-13T04:12:18.710Z,6.20
2019-01-13T04:13:22.282Z,6.20
2019-01-13T04:14:25.818Z,6.20
2019-01-13T04:15:40.562Z,6.20
2019-01-13T04:16:44.379Z,6.20
2019-01-13T04:17:48.033Z,6.30
2019-01-13T04:18:51.573Z,6.20
2019-01-13T04:19:55.038Z,6.20
2019-01-13T04:20:58.713Z,6.20
2019-01-13T04:22:02.242Z,6.20
2019-01-13T04:23:05.816Z,6.20
2019-01-13T04:24:09.357Z,6.20
2019-01-13T04:25:12.994Z,6.20
2019-01-13T04:26:16.570Z,6.20
2019-01-13T04:27:20.109Z,6.20
2019-01-13T04:28:23.606Z,6.20
2019-01-13T04:29:27.078Z,6.20
2019-01-13T04:30:30.622Z,6.20
2019-01-13T04:31:34.163Z,6.10
2019-01-13T04:32:37.711Z,6.10
2019-01-13T04:33:41.282Z,6.10
2019-01-13T04:34:44.866Z,6.10
2019-01-13T04:35:48.367Z,6.10
2019-01-13T04:36:51.825Z,6.10
2019-01-13T04:37:55.295Z,6.10
2019-01-13T04:38:58.882Z,6.10
2019-01-13T04:40:02.417Z,6.10
2019-01-13T04:41:05.901Z,6.20
2019-01-13T04:42:09.463Z,6.20
2019-01-13T04:43:12.972Z,6.20
2019-01-13T04:44:16.538Z,6.30
2019-01-13T04:45:20.081Z,6.30
2019-01-13T04:46:23.665Z,6.20
2019-01-13T04:47:27.202Z,6.30
2019-01-13T04:48:30.740Z,6.20
2019-01-13T04:49:34.279Z,6.20
2019-01-13T04:50:37.858Z,6.20
2019-01-13T04:51:41.393Z,6.20
2019-01-13T04:52:44.938Z,6.10
2019-01-13T04:53:48.481Z,6.20
2019-01-13T04:54:52.014Z,6.20
2019-01-13T04:55:55.590Z,6.20
2019-01-13T04:56:59.131Z,6.20
2019-01-13T04:58:02.675Z,6.10
2019-01-13T04:59:06.215Z,6.10
2019-01-13T05:00:18.573Z,6.10
2019-01-13T05:01:22.068Z,6.10
2019-01-13T05:02:25.651Z,6.10
2019-01-13T05:03:29.202Z,6.10
2019-01-13T05:04:32.743Z,6.10
2019-01-13T05:05:36.284Z,6.20
2019-01-13T05:06:39.862Z,6.20
2019-01-13T05:07:43.465Z,6.10
2019-01-13T05:08:46.937Z,6.10
2019-01-13T05:09:50.478Z,6.10
2019-01-13T05:10:54.058Z,6.20
2019-01-13T05:11:57.599Z,6.20
2019-01-13T05:13:01.138Z,6.20
2019-01-13T05:14:04.749Z,6.20
2019-01-13T05:15:08.434Z,6.20
2019-01-13T05:16:12.018Z,6.20
2019-01-13T05:17:15.479Z,6.20
2019-01-13T05:18:19.058Z,6.20
2019-01-13T05:19:22.595Z,6.30
2019-01-13T05:20:26.134Z,6.30
2019-01-13T05:21:29.682Z,6.30
2019-01-13T05:22:33.215Z,6.30
2019-01-13T05:23:36.799Z,6.30
2019-01-13T05:24:40.337Z,6.30
2019-01-13T05:25:43.880Z,6.30
2019-01-13T05:26:47.425Z,6.30
2019-01-13T05:27:50.961Z,6.30
2019-01-13T05:28:54.537Z,6.30
2019-01-13T05:29:58.076Z,6.30
2019-01-13T05:31:01.618Z,6.30
2019-01-13T05:32:05.153Z,6.30
2019-01-13T05:33:08.624Z,6.40
2019-01-13T05:34:12.204Z,6.30
2019-01-13T05:35:15.846Z,6.30
2019-01-13T05:36:19.318Z,6.30
2019-01-13T05:37:22.926Z,6.40
2019-01-13T05:38:26.469Z,6.40
2019-01-13T05:39:30.011Z,6.30
2019-01-13T05:40:33.586Z,6.30
2019-01-13T05:41:37.049Z,6.40
2019-01-13T05:42:40.522Z,6.40
2019-01-13T05:43:44.061Z,6.30
2019-01-13T05:44:47.593Z,6.40
2019-01-13T05:45:51.090Z,6.30
2019-01-13T05:46:54.662Z,6.30
2019-01-13T05:47:58.135Z,6.30
2019-01-13T05:49:01.678Z,6.30
2019-01-13T05:50:08.349Z,6.30
2019-01-13T05:51:11.918Z,6.40
2019-01-13T05:52:15.432Z,6.40
2019-01-13T05:53:19.034Z,6.40
2019-01-13T05:54:22.575Z,6.40
2019-01-13T05:55:26.179Z,6.40
2019-01-13T05:56:31.296Z,6.40
2019-01-13T05:57:34.893Z,6.50
2019-01-13T05:58:38.357Z,6.50
2019-01-13T05:59:41.963Z,6.40
2019-01-13T06:00:45.503Z,6.40
2019-01-13T06:01:49.499Z,6.50
2019-01-13T06:02:53.031Z,6.40
2019-01-13T06:03:56.579Z,6.50
2019-01-13T06:05:00.180Z,6.50
2019-01-13T06:06:03.738Z,6.50
2019-01-13T06:07:07.302Z,6.50
2019-01-13T06:08:10.770Z,6.50
2019-01-13T06:09:14.322Z,6.50
2019-01-13T06:10:19.494Z,6.50
2019-01-13T06:11:23.003Z,6.50
2019-01-13T06:12:26.541Z,6.60
2019-01-13T06:13:30.118Z,6.50
2019-01-13T06:14:33.661Z,6.50
2019-01-13T06:15:37.202Z,6.50
2019-01-13T06:16:40.793Z,6.50
2019-01-13T06:17:44.397Z,6.50
2019-01-13T06:18:49.582Z,6.50
2019-01-13T06:19:53.127Z,6.50
2019-01-13T06:20:56.704Z,6.50
2019-01-13T06:22:00.246Z,6.40
2019-01-13T06:23:03.786Z,6.50
2019-01-13T06:24:07.330Z,6.50
2019-01-13T06:25:10.972Z,6.50
2019-01-13T06:26:14.548Z,6.50
2019-01-13T06:27:18.159Z,6.50
2019-01-13T06:28:21.696Z,6.50
2019-01-13T06:29:25.262Z,6.50
2019-01-13T06:30:28.812Z,6.50
2019-01-13T06:31:32.350Z,6.50
2019-01-13T06:32:35.898Z,6.60
2019-01-13T06:33:39.438Z,6.60
2019-01-13T06:34:43.005Z,6.60
2019-01-13T06:35:46.475Z,6.50
2019-01-13T06:36:50.016Z,6.50
2019-01-13T06:37:53.550Z,6.50
2019-01-13T06:38:57.126Z,6.50
2019-01-13T06:40:00.670Z,6.40
2019-01-13T06:41:04.217Z,6.40
2019-01-13T06:42:07.742Z,6.40
2019-01-13T06:43:11.202Z,6.40
2019-01-13T06:44:14.731Z,6.40
2019-01-13T06:45:20.506Z,6.40
2019-01-13T06:46:24.042Z,6.40
2019-01-13T06:47:27.586Z,6.40
2019-01-13T06:48:31.166Z,6.40
2019-01-13T06:49:34.783Z,6.40
2019-01-13T06:50:38.321Z,6.50
2019-01-13T06:51:41.975Z,6.50
2019-01-13T06:52:45.585Z,6.50
2019-01-13T06:53:49.158Z,6.50
2019-01-13T06:54:52.702Z,6.50
2019-01-13T06:55:56.242Z,6.50
2019-01-13T06:56:59.783Z,6.50
2019-01-13T06:58:03.323Z,6.50
2019-01-13T06:59:06.901Z,6.50
2019-01-13T07:00:16.474Z,6.50
2019-01-13T07:01:19.940Z,6.50
2019-01-13T07:02:23.486Z,6.50
2019-01-13T07:03:27.031Z,6.50
2019-01-13T07:04:30.619Z,6.50
2019-01-13T07:05:34.174Z,6.50
2019-01-13T07:06:37.718Z,6.50
2019-01-13T07:07:41.339Z,6.60
2019-01-13T07:08:44.888Z,6.60
2019-01-13T07:09:48.464Z,6.60
2019-01-13T07:10:52.004Z,6.60
2019-01-13T07:11:55.547Z,6.60
2019-01-13T07:12:59.137Z,6.60
2019-01-13T07:14:02.679Z,6.70
2019-01-13T07:15:09.263Z,6.70
2019-01-13T07:16:12.807Z,6.70
2019-01-13T07:17:16.346Z,6.70
2019-01-13T07:18:19.926Z,6.80
2019-01-13T07:19:23.394Z,6.80
2019-01-13T07:20:26.950Z,6.80
2019-01-13T07:21:30.495Z,6.80
2019-01-13T07:22:34.038Z,6.80
2019-01-13T07:23:37.626Z,6.80
2019-01-13T07:24:41.180Z,6.80
2019-01-13T07:25:44.731Z,6.80
2019-01-13T07:26:48.280Z,6.80
2019-01-13T07:27:51.826Z,6.80
2019-01-13T07:28:55.409Z,6.80
2019-01-13T07:29:58.954Z,6.80
2019-01-13T07:31:02.499Z,6.80
2019-01-13T07:32:10.781Z,6.70
2019-01-13T07:33:11.242Z,6.70
2019-01-13T07:34:14.834Z,6.70
2019-01-13T07:35:18.449Z,6.70
2019-01-13T07:36:22.078Z,6.70
2019-01-13T07:37:25.610Z,6.70
2019-01-13T07:38:29.087Z,6.70
2019-01-13T07:39:32.735Z,6.60
2019-01-13T07:40:36.221Z,6.60
2019-01-13T07:41:39.760Z,6.60
2019-01-13T07:42:43.310Z,6.60
2019-01-13T07:43:46.774Z,6.60
2019-01-13T07:44:50.361Z,6.60
2019-01-13T07:45:53.830Z,6.60
2019-01-13T07:46:57.370Z,6.50
2019-01-13T07:48:00.915Z,6.50
2019-01-13T07:49:04.456Z,6.50
2019-01-13T07:50:10.851Z,6.60
2019-01-13T07:51:14.395Z,6.50
2019-01-13T07:52:17.928Z,6.50
2019-01-13T07:53:21.475Z,6.50
2019-01-13T07:54:26.144Z,6.50
2019-01-13T07:55:29.727Z,6.50
2019-01-13T07:56:33.262Z,6.50
2019-01-13T07:57:36.803Z,6.50
2019-01-13T07:58:40.277Z,6.50
2019-01-13T07:59:43.809Z,6.40
2019-01-13T08:00:47.390Z,6.40
2019-01-13T08:01:50.934Z,6.30
2019-01-13T08:02:54.469Z,6.40
2019-01-13T08:03:58.014Z,6.30
2019-01-13T08:05:01.559Z,6.30
2019-01-13T08:06:05.211Z,6.20
2019-01-13T08:07:08.742Z,6.30
2019-01-13T08:08:12.257Z,6.20
2019-01-13T08:09:15.799Z,6.20
2019-01-13T08:10:19.350Z,6.20
2019-01-13T08:11:22.926Z,6.20
2019-01-13T08:12:26.402Z,6.20
2019-01-13T08:13:29.951Z,6.20
2019-01-13T08:14:33.487Z,6.20
2019-01-13T08:15:36.946Z,6.20
2019-01-13T08:16:40.529Z,6.20
2019-01-13T08:17:44.082Z,6.10
2019-01-13T08:18:47.618Z,6.10
2019-01-13T08:19:51.136Z,6.10
2019-01-13T08:20:54.670Z,6.20
2019-01-13T08:21:58.252Z,6.20
2019-01-13T08:23:01.930Z,6.20
2019-01-13T08:24:05.472Z,6.20
2019-01-13T08:25:09.153Z,6.20
2019-01-13T08:26:12.692Z,6.20
2019-01-13T08:27:16.271Z,6.20
2019-01-13T08:28:19.811Z,6.20
2019-01-13T08:29:23.271Z,6.30
2019-01-13T08:30:27.277Z,6.20
2019-01-13T08:31:30.744Z,6.30
2019-01-13T08:32:34.331Z,6.20
2019-01-13T08:33:37.875Z,6.30
2019-01-13T08:34:41.639Z,6.20
2019-01-13T08:35:45.130Z,6.30
2019-01-13T08:36:48.611Z,6.20
2019-01-13T08:37:52.182Z,6.20
2019-01-13T08:38:55.725Z,6.30
2019-01-13T08:39:59.266Z,6.30
2019-01-13T08:41:02.738Z,6.30
2019-01-13T08:42:06.281Z,6.30
2019-01-13T08:43:09.939Z,6.30
2019-01-13T08:44:13.482Z,6.30
2019-01-13T08:45:17.666Z,6.40
2019-01-13T08:46:21.210Z,6.40
2019-01-13T08:47:24.674Z,6.40
2019-01-13T08:48:28.262Z,6.40
2019-01-13T08:49:31.825Z,6.40
2019-01-13T08:50:35.353Z,6.40
2019-01-13T08:51:38.887Z,6.40
2019-01-13T08:52:42.504Z,6.40
2019-01-13T08:53:46.066Z,6.40
2019-01-13T08:54:49.528Z,6.40
2019-01-13T08:55:53.508Z,6.40
2019-01-13T08:56:57.062Z,6.40
2019-01-13T08:58:00.649Z,6.40
2019-01-13T08:59:04.186Z,6.40
2019-01-13T09:00:10.818Z,6.40
2019-01-13T09:01:14.359Z,6.40
2019-01-13T09:02:17.894Z,6.50
2019-01-13T09:03:21.482Z,6.50
2019-01-13T09:04:25.078Z,6.50
2019-01-13T09:05:29.993Z,6.50
2019-01-13T09:06:33.640Z,6.50
2019-01-13T09:07:37.173Z,6.50
2019-01-13T09:08:40.688Z,6.50
2019-01-13T09:09:44.229Z,6.50
2019-01-13T09:10:47.762Z,6.50
2019-01-13T09:11:51.228Z,6.50
2019-01-13T09:12:56.994Z,6.50
2019-01-13T09:13:59.988Z,6.50
2019-01-13T09:15:05.139Z,6.50
2019-01-13T09:16:08.680Z,6.50
2019-01-13T09:17:12.218Z,6.50
2019-01-13T09:18:15.755Z,6.50
2019-01-13T09:19:19.339Z,6.60
2019-01-13T09:20:27.989Z,6.60
2019-01-13T09:21:31.526Z,6.60
2019-01-13T09:22:35.156Z,6.60
2019-01-13T09:23:38.700Z,6.60
2019-01-13T09:24:42.354Z,6.60
2019-01-13T09:25:45.836Z,6.60
2019-01-13T09:26:51.051Z,6.50
2019-01-13T09:27:54.558Z,6.60
2019-01-13T09:28:58.023Z,6.50
2019-01-13T09:30:01.605Z,6.60
2019-01-13T09:31:05.255Z,6.60
2019-01-13T09:32:08.786Z,6.60
2019-01-13T09:33:12.276Z,6.60
2019-01-13T09:34:15.839Z,6.60
2019-01-13T09:35:19.450Z,6.60
2019-01-13T09:36:23.034Z,6.60
2019-01-13T09:37:26.574Z,6.60
2019-01-13T09:38:30.136Z,6.60
2019-01-13T09:39:33.646Z,6.60
2019-01-13T09:40:37.327Z,6.60
2019-01-13T09:41:40.917Z,6.60
2019-01-13T09:42:44.462Z,6.60
2019-01-13T09:43:48.017Z,6.70
2019-01-13T09:44:51.558Z,6.70
2019-01-13T09:45:55.100Z,6.70
2019-01-13T09:46:58.689Z,6.70
2019-01-13T09:48:02.297Z,6.70
2019-01-13T09:49:05.906Z,6.70
2019-01-13T09:50:12.683Z,6.70
2019-01-13T09:51:16.149Z,6.70
2019-01-13T09:52:19.739Z,6.80
2019-01-13T09:53:23.279Z,6.80
2019-01-13T09:54:26.816Z,6.80
2019-01-13T09:55:30.441Z,6.80
2019-01-13T09:56:34.026Z,6.80
2019-01-13T09:57:37.568Z,6.80
2019-01-13T09:58:41.106Z,6.80
2019-01-13T09:59:44.766Z,6.80
2019-01-13T10:00:48.302Z,6.90
2019-01-13T10:01:51.818Z,6.80
2019-01-13T10:02:55.351Z,6.90
2019-01-13T10:03:58.898Z,6.90
2019-01-13T10:05:02.435Z,6.90
2019-01-13T10:06:06.055Z,6.90
2019-01-13T10:07:09.562Z,6.90
2019-01-13T10:08:13.099Z,6.90
2019-01-13T10:09:16.630Z,6.90
2019-01-13T10:10:20.095Z,6.90
2019-01-13T10:11:23.634Z,6.90
2019-01-13T10:12:27.152Z,6.90
2019-01-13T10:13:30.691Z,6.90
2019-01-13T10:14:34.229Z,6.90
2019-01-13T10:15:37.770Z,6.90
2019-01-13T10:16:41.359Z,7.00
2019-01-13T10:17:45.283Z,7.00
2019-01-13T10:18:48.819Z,7.00
2019-01-13T10:19:52.358Z,7.00
2019-01-13T10:20:56.199Z,6.90
2019-01-13T10:21:59.847Z,6.90
2019-01-13T10:23:03.503Z,7.00
2019-01-13T10:24:07.046Z,7.00
2019-01-13T10:25:11.156Z,7.00
2019-01-13T10:26:14.698Z,7.00
2019-01-13T10:27:18.239Z,7.00
2019-01-13T10:28:21.779Z,7.00
2019-01-13T10:29:25.322Z,7.00
2019-01-13T10:30:30.333Z,7.00
2019-01-13T10:31:33.944Z,7.00
2019-01-13T10:32:37.527Z,7.00
2019-01-13T10:33:41.061Z,7.00
2019-01-13T10:34:44.598Z,7.00
2019-01-13T10:35:48.174Z,6.90
2019-01-13T10:36:51.706Z,7.00
2019-01-13T10:37:55.309Z,7.00
2019-01-13T10:38:58.902Z,7.00
2019-01-13T10:40:02.428Z,7.00
2019-01-13T10:41:06.074Z,7.00
2019-01-13T10:42:09.646Z,7.00
2019-01-13T10:43:13.115Z,7.00
2019-01-13T10:44:16.695Z,7.00
2019-01-13T10:45:20.235Z,7.10
2019-01-13T10:46:23.767Z,7.10
2019-01-13T10:47:27.342Z,7.10
2019-01-13T10:48:30.922Z,7.10
2019-01-13T10:49:34.823Z,7.10
2019-01-13T10:50:38.342Z,7.10
2019-01-13T10:51:41.805Z,7.10
2019-01-13T10:52:45.443Z,7.10
2019-01-13T10:53:49.018Z,7.10
2019-01-13T10:54:52.561Z,7.10
2019-01-13T10:55:56.211Z,7.10
2019-01-13T10:57:00.463Z,7.10
2019-01-13T10:58:04.312Z,7.20
2019-01-13T10:59:07.852Z,7.10
2019-01-13T11:00:16.914Z,7.20
2019-01-13T11:01:20.486Z,7.20
2019-01-13T11:02:24.057Z,7.20
2019-01-13T11:03:27.526Z,7.20
2019-01-13T11:04:31.066Z,7.20
2019-01-13T11:05:34.602Z,7.20
2019-01-13T11:06:38.183Z,7.20
2019-01-13T11:07:41.730Z,7.30
2019-01-13T11:08:45.274Z,7.20
2019-01-13T11:09:48.814Z,7.30
2019-01-13T11:10:52.403Z,7.30
2019-01-13T11:11:55.934Z,7.30
2019-01-13T11:12:59.480Z,7.30
2019-01-13T11:14:03.013Z,7.30
2019-01-13T11:15:09.314Z,7.30
2019-01-13T11:16:12.825Z,7.30
2019-01-13T11:17:16.295Z,7.40
2019-01-13T11:18:19.861Z,7.40
2019-01-13T11:19:23.426Z,7.40
2019-01-13T11:20:29.746Z,7.40
2019-01-13T11:21:33.281Z,7.50
2019-01-13T11:22:36.822Z,7.50
2019-01-13T11:23:40.394Z,7.50
2019-01-13T11:24:44.100Z,7.50
2019-01-13T11:25:47.678Z,7.50
2019-01-13T11:26:51.214Z,7.50
2019-01-13T11:27:54.753Z,7.60
2019-01-13T11:28:58.299Z,7.60
2019-01-13T11:30:01.971Z,7.60
2019-01-13T11:31:05.706Z,7.60
2019-01-13T11:32:09.226Z,7.60
2019-01-13T11:33:12.727Z,7.60
2019-01-13T11:34:16.266Z,7.70
2019-01-13T11:35:19.734Z,7.70
2019-01-13T11:36:23.274Z,7.80
2019-01-13T11:37:26.859Z,7.80
2019-01-13T11:38:30.332Z,7.80
2019-01-13T11:39:33.870Z,7.70
2019-01-13T11:40:37.419Z,7.90
2019-01-13T11:41:40.954Z,7.80
2019-01-13T11:42:44.526Z,7.90
2019-01-13T11:43:48.070Z,7.80
2019-01-13T11:44:51.606Z,7.80
2019-01-13T11:45:55.186Z,7.80
2019-01-13T11:46:58.726Z,7.80
2019-01-13T11:48:02.340Z,7.90
2019-01-13T11:49:05.878Z,7.90
2019-01-13T11:50:12.566Z,7.90
2019-01-13T11:51:16.137Z,8.00
2019-01-13T11:52:19.675Z,8.00
2019-01-13T11:53:23.214Z,8.00
2019-01-13T11:54:26.681Z,8.00
2019-01-13T11:55:30.253Z,8.10
2019-01-13T11:56:33.731Z,8.10
2019-01-13T11:57:37.350Z,8.20
2019-01-13T11:58:40.901Z,8.20
2019-01-13T11:59:44.438Z,8.20
2019-01-13T12:00:48.114Z,8.20
2019-01-13T12:01:51.722Z,8.20
2019-01-13T12:02:55.398Z,8.30
2019-01-13T12:03:58.866Z,8.30
2019-01-13T12:05:02.397Z,8.40
2019-01-13T12:06:05.984Z,8.40
2019-01-13T12:07:09.526Z,8.40
2019-01-13T12:08:13.062Z,8.40
2019-01-13T12:09:16.638Z,8.40
2019-01-13T12:10:21.988Z,8.40
2019-01-13T12:11:25.590Z,8.40
2019-01-13T12:12:29.054Z,8.50
2019-01-13T12:13:32.587Z,8.50
2019-01-13T12:14:36.175Z,8.50
2019-01-13T12:15:39.714Z,8.50
2019-01-13T12:16:43.259Z,8.60
2019-01-13T12:17:46.873Z,8.60
2019-01-13T12:18:50.408Z,8.60
2019-01-13T12:19:53.992Z,8.60
2019-01-13T12:20:57.562Z,8.60
2019-01-13T12:22:01.062Z,8.60
2019-01-13T12:23:04.798Z,8.60
2019-01-13T12:24:08.263Z,8.60
2019-01-13T12:25:14.437Z,8.60
2019-01-13T12:26:17.929Z,8.60
2019-01-13T12:27:21.461Z,8.60
2019-01-13T12:28:24.921Z,8.60
2019-01-13T12:29:28.458Z,8.60
2019-01-13T12:30:32.671Z,8.60
2019-01-13T12:31:36.202Z,8.60
2019-01-13T12:32:39.735Z,8.60
2019-01-13T12:33:43.271Z,8.60
2019-01-13T12:34:46.810Z,8.60
2019-01-13T12:35:50.314Z,8.60
2019-01-13T12:36:53.785Z,8.60
2019-01-13T12:37:57.419Z,8.60
2019-01-13T12:39:01.026Z,8.60
2019-01-13T12:40:07.647Z,8.60
2019-01-13T12:41:11.193Z,8.70
2019-01-13T12:42:14.765Z,8.70
2019-01-13T12:43:18.381Z,8.70
2019-01-13T12:44:21.854Z,8.70
2019-01-13T12:45:25.393Z,8.70
2019-01-13T12:46:28.866Z,8.70
2019-01-13T12:47:32.441Z,8.70
2019-01-13T12:48:36.010Z,8.70
2019-01-13T12:49:39.474Z,8.70
2019-01-13T12:50:43.062Z,8.70
2019-01-13T12:51:46.538Z,8.70
2019-01-13T12:52:50.151Z,8.70
2019-01-13T12:53:53.762Z,8.70
2019-01-13T12:54:57.309Z,8.70
2019-01-13T12:56:00.898Z,8.70
2019-01-13T12:57:04.708Z,8.70
2019-01-13T12:58:08.239Z,8.80
2019-01-13T12:59:11.782Z,8.80
2019-01-13T13:00:21.019Z,8.80
2019-01-13T13:01:24.598Z,8.80
2019-01-13T13:02:28.131Z,8.80
2019-01-13T13:03:32.043Z,8.80
2019-01-13T13:04:35.514Z,8.80
2019-01-13T13:05:39.096Z,8.80
2019-01-13T13:06:42.634Z,8.90
2019-01-13T13:07:46.749Z,8.90
2019-01-13T13:08:50.278Z,8.90
2019-01-13T13:09:53.818Z,8.90
2019-01-13T13:10:57.406Z,8.90
2019-01-13T13:12:01.261Z,8.90
2019-01-13T13:13:05.233Z,8.80
2019-01-13T13:14:08.813Z,8.90
2019-01-13T13:15:12.491Z,8.90
2019-01-13T13:16:16.026Z,8.90
2019-01-13T13:17:19.562Z,8.90
2019-01-13T13:18:23.026Z,8.90
2019-01-13T13:19:26.610Z,8.90
2019-01-13T13:20:30.220Z,8.90
2019-01-13T13:21:33.789Z,8.90
2019-01-13T13:22:37.366Z,8.90
2019-01-13T13:23:40.906Z,9.00
2019-01-13T13:24:44.446Z,8.90
2019-01-13T13:25:48.042Z,8.90
2019-01-13T13:26:51.562Z,8.90
2019-01-13T13:27:55.174Z,9.00
2019-01-13T13:28:58.710Z,8.90
2019-01-13T13:30:02.318Z,8.90
2019-01-13T13:31:05.894Z,8.90
2019-01-13T13:32:09.440Z,8.90
2019-01-13T13:33:12.975Z,8.90
2019-01-13T13:34:16.597Z,8.90
2019-01-13T13:35:20.582Z,8.90
2019-01-13T13:36:24.158Z,8.90
2019-01-13T13:37:27.696Z,8.90
2019-01-13T13:38:31.230Z,8.90
2019-01-13T13:39:34.690Z,8.90
2019-01-13T13:40:38.424Z,8.90
2019-01-13T13:41:41.942Z,8.90
2019-01-13T13:42:45.534Z,8.80
2019-01-13T13:43:50.047Z,8.90
2019-01-13T13:44:53.578Z,8.90
2019-01-13T13:45:57.045Z,8.90
2019-01-13T13:47:00.626Z,8.90
2019-01-13T13:48:04.542Z,8.80
2019-01-13T13:49:08.077Z,8.80
2019-01-13T13:50:14.630Z,8.80
2019-01-13T13:51:18.133Z,8.80
2019-01-13T13:52:21.671Z,8.90
2019-01-13T13:53:25.230Z,8.90
2019-01-13T13:54:28.698Z,8.90
2019-01-13T13:55:32.301Z,8.80
2019-01-13T13:56:35.765Z,8.80
2019-01-13T13:57:39.338Z,8.80
2019-01-13T13:58:42.874Z,8.80
2019-01-13T13:59:46.418Z,8.80
2019-01-13T14:00:49.955Z,8.90
2019-01-13T14:01:53.418Z,8.80
2019-01-13T14:02:57.129Z,8.90
2019-01-13T14:04:00.610Z,8.80
2019-01-13T14:05:05.530Z,8.90
2019-01-13T14:06:09.029Z,8.80
2019-01-13T14:07:12.530Z,8.90
2019-01-13T14:08:16.210Z,8.80
2019-01-13T14:09:19.718Z,8.90